Time,TemperatureF,DewpointF,PressureIn,WindDirection,WindDirectionDegrees,WindSpeedMPH,WindSpeedGustMPH,Humidity,HourlyPrecipIn,Conditions,Clouds,dailyrainin,SoftwareType,DateUTC
2013-01-18 00:00:00,30.8,20.8,30.42,NW,313,3.0,9.0,66,0.00,,BKN055,0.00,VWS V14.00,2013-01-18 05:00:00,
2013-01-18 00:10:00,30.6,20.6,30.42,NW,309,3.0,12.0,66,0.00,,BKN055,0.00,VWS V14.00,2013-01-18 05:10:00,
2013-01-18 00:20:00,30.4,20.4,30.44,NW,312,3.0,8.0,66,0.00,,BKN055,0.00,VWS V14.00,2013-01-18 05:20:00,
2013-01-18 00:30:00,30.1,20.1,30.44,NW,321,3.0,7.0,66,0.00,,BKN055,0.00,VWS V14.00,2013-01-18 05:30:00,
2013-01-18 00:40:00,29.6,20.4,30.44,NNW,334,2.0,5.0,68,0.00,,BKN055,0.00,VWS V14.00,2013-01-18 05:40:00,
2013-01-18 00:50:00,29.1,20.2,30.44,NNW,332,0.0,4.0,69,0.00,,BKN055,0.00,VWS V14.00,2013-01-18 05:50:00,
2013-01-18 01:00:00,28.6,20.4,30.44,NNW,333,0.0,0.0,71,0.00,,BKN055,0.00,VWS V14.00,2013-01-18 06:00:00,
2013-01-18 01:10:00,28.0,20.2,30.45,NNW,333,0.0,0.0,72,0.00,,BKN055,0.00,VWS V14.00,2013-01-18 06:10:00,
2013-01-18 01:20:00,27.5,20.0,30.45,NNW,333,0.0,0.0,73,0.00,,BKN055,0.00,VWS V14.00,2013-01-18 06:20:00,
2013-01-18 01:30:00,26.9,20.7,30.45,NNW,333,0.0,2.0,77,0.00,,BKN055,0.00,VWS V14.00,2013-01-18 06:30:00,
2013-01-18 01:50:00,25.9,20.6,30.46,NNW,333,0.0,0.0,80,0.00,,BKN055,0.00,VWS V14.00,2013-01-18 06:50:00,
2013-01-18 02:00:00,25.9,21.2,30.47,NNW,333,0.0,0.0,82,0.00,,BKN055,0.00,VWS V14.00,2013-01-18 07:00:00,
2013-01-18 02:10:00,25.8,21.4,30.47,NNW,333,0.0,0.0,83,0.00,,BKN055,0.00,VWS V14.00,2013-01-18 07:10:00,
2013-01-18 02:20:00,25.5,21.1,30.47,NNW,333,0.0,0.0,83,0.00,,BKN055,0.00,VWS V14.00,2013-01-18 07:20:00,
2013-01-18 02:30:00,25.3,21.1,30.47,NNW,333,0.0,0.0,84,0.00,,BKN055,0.00,VWS V14.00,2013-01-18 07:30:00,
2013-01-18 02:40:00,24.8,21.2,30.47,NNW,333,0.0,3.0,86,0.00,,BKN055,0.00,VWS V14.00,2013-01-18 07:40:00,
2013-01-18 02:50:00,24.6,21.3,30.48,NNW,333,1.0,2.0,87,0.00,,BKN055,0.00,VWS V14.00,2013-01-18 07:50:00,
2013-01-18 03:00:00,24.5,21.2,30.47,NNW,333,0.0,2.0,87,0.00,,BKN055,0.00,VWS V14.00,2013-01-18 08:00:00,
2013-01-18 03:10:00,24.0,21.0,30.48,NNW,333,2.0,3.0,88,0.00,,BKN055,0.00,VWS V14.00,2013-01-18 08:10:00,
2013-01-18 03:20:00,23.2,20.2,30.48,NNW,333,2.0,3.0,88,0.00,,BKN055,0.00,VWS V14.00,2013-01-18 08:20:00,
2013-01-18 03:30:00,23.1,20.4,30.48,NNW,331,2.0,4.0,89,0.00,,BKN055,0.00,VWS V14.00,2013-01-18 08:30:00,
2013-01-18 03:40:00,22.9,20.4,30.49,NNW,331,1.0,4.0,90,0.00,,BKN055,0.00,VWS V14.00,2013-01-18 08:40:00,
2013-01-18 03:50:00,22.3,19.6,30.49,NNW,334,2.0,3.0,89,0.00,,BKN055,0.00,VWS V14.00,2013-01-18 08:50:00,
2013-01-18 04:00:00,22.2,19.7,30.50,NNW,333,2.0,3.0,90,0.00,,BKN055,0.00,VWS V14.00,2013-01-18 09:00:00,
2013-01-18 04:10:00,21.8,19.3,30.50,NNW,341,3.0,4.0,90,0.00,,BKN055,0.00,VWS V14.00,2013-01-18 09:10:00,
2013-01-18 04:20:00,21.8,19.3,30.50,NNW,336,2.0,4.0,90,0.00,,BKN055,0.00,VWS V14.00,2013-01-18 09:20:00,
2013-01-18 04:30:00,21.9,19.7,30.50,NNW,336,1.0,3.0,91,0.00,,BKN055,0.00,VWS V14.00,2013-01-18 09:30:00,
2013-01-18 04:40:00,21.8,19.6,30.50,NNW,331,3.0,3.0,91,0.00,,BKN055,0.00,VWS V14.00,2013-01-18 09:40:00,
2013-01-18 04:50:00,21.6,19.4,30.50,NNW,330,2.0,3.0,91,0.00,,BKN055,0.00,VWS V14.00,2013-01-18 09:50:00,
2013-01-18 05:00:00,21.1,18.9,30.50,NNW,333,3.0,4.0,91,0.00,,BKN055,0.00,VWS V14.00,2013-01-18 10:00:00,
2013-01-18 05:10:00,20.8,18.6,30.50,NW,319,3.0,4.0,91,0.00,,BKN055,0.00,VWS V14.00,2013-01-18 10:10:00,
2013-01-18 05:20:00,20.8,18.6,30.51,NW,320,3.0,3.0,91,0.00,,BKN055,0.00,VWS V14.00,2013-01-18 10:20:00,
2013-01-18 05:30:00,20.7,18.5,30.51,NW,321,1.0,4.0,91,0.00,,BKN055,0.00,VWS V14.00,2013-01-18 10:30:00,
2013-01-18 05:40:00,20.5,18.3,30.51,NW,318,2.0,4.0,91,0.00,,BKN055,0.00,VWS V14.00,2013-01-18 10:40:00,
2013-01-18 05:50:00,20.5,18.3,30.51,NW,323,0.0,3.0,91,0.00,,BKN055,0.00,VWS V14.00,2013-01-18 10:50:00,
2013-01-18 06:00:00,20.3,18.1,30.50,NW,323,0.0,2.0,91,0.00,,BKN055,0.00,VWS V14.00,2013-01-18 11:00:00,
2013-01-18 06:10:00,20.1,18.1,30.50,NW,323,0.0,0.0,92,0.00,,BKN055,0.00,VWS V14.00,2013-01-18 11:10:00,
2013-01-18 06:20:00,20.2,18.2,30.51,NW,323,0.0,0.0,92,0.00,,BKN055,0.00,VWS V14.00,2013-01-18 11:20:00,
2013-01-18 06:30:00,19.9,18.0,30.51,NW,325,2.0,3.0,92,0.00,,BKN055,0.00,VWS V14.00,2013-01-18 11:30:00,
2013-01-18 06:40:00,19.7,17.8,30.51,NW,326,2.0,3.0,92,0.00,,BKN055,0.00,VWS V14.00,2013-01-18 11:40:00,
2013-01-18 06:50:00,19.5,17.6,30.51,NNW,327,0.0,3.0,92,0.00,,BKN055,0.00,VWS V14.00,2013-01-18 11:50:00,
2013-01-18 07:00:00,19.4,17.5,30.51,NNW,327,0.0,2.0,92,0.00,,BKN055,0.00,VWS V14.00,2013-01-18 12:00:00,
2013-01-18 07:10:00,19.3,17.6,30.51,NNW,327,0.0,2.0,93,0.00,,BKN055,0.00,VWS V14.00,2013-01-18 12:10:00,
2013-01-18 07:20:00,19.1,17.4,30.52,NNW,327,0.0,0.0,93,0.00,,BKN055,0.00,VWS V14.00,2013-01-18 12:20:00,
2013-01-18 07:30:00,18.9,17.2,30.51,NNW,331,1.0,3.0,93,0.00,,BKN055,0.00,VWS V14.00,2013-01-18 12:30:00,
2013-01-18 07:40:00,18.9,17.2,30.52,NW,315,3.0,4.0,93,0.00,,BKN055,0.00,VWS V14.00,2013-01-18 12:40:00,
2013-01-18 07:50:00,18.8,17.1,30.52,NNW,338,2.0,4.0,93,0.00,,BKN055,0.00,VWS V14.00,2013-01-18 12:50:00,
2013-01-18 08:00:00,18.8,17.1,30.52,NNW,335,4.0,5.0,93,0.00,,BKN055,0.00,VWS V14.00,2013-01-18 13:00:00,
2013-01-18 08:10:00,18.7,17.0,30.52,NNW,336,2.0,4.0,93,0.00,,BKN055,0.00,VWS V14.00,2013-01-18 13:10:00,
2013-01-18 08:20:00,18.9,17.2,30.52,NNW,338,3.0,5.0,93,0.00,,BKN055,0.00,VWS V14.00,2013-01-18 13:20:00,
2013-01-18 08:30:00,19.1,17.4,30.52,NNW,338,3.0,4.0,93,0.00,,BKN055,0.00,VWS V14.00,2013-01-18 13:30:00,
2013-01-18 08:40:00,19.5,17.8,30.52,NNW,337,3.0,4.0,93,0.00,,BKN055,0.00,VWS V14.00,2013-01-18 13:40:00,
2013-01-18 08:50:00,19.9,18.2,30.52,NNW,340,0.0,4.0,93,0.00,,BKN055,0.00,VWS V14.00,2013-01-18 13:50:00,
2013-01-18 09:00:00,20.7,19.2,30.52,NNW,340,0.0,2.0,94,0.00,,BKN055,0.00,VWS V14.00,2013-01-18 14:00:00,
2013-01-18 09:10:00,21.7,20.2,30.53,NNW,342,3.0,3.0,94,0.00,,BKN055,0.00,VWS V14.00,2013-01-18 14:10:00,
2013-01-18 09:20:00,22.4,20.7,30.52,NNW,345,2.0,3.0,93,0.00,,BKN055,0.00,VWS V14.00,2013-01-18 14:20:00,
2013-01-18 09:30:00,23.5,21.8,30.53,NNW,345,2.0,3.0,93,0.00,,BKN055,0.00,VWS V14.00,2013-01-18 14:30:00,
2013-01-18 09:40:00,24.7,22.5,30.54,NNW,345,1.0,3.0,91,0.00,,BKN055,0.00,VWS V14.00,2013-01-18 14:40:00,
2013-01-18 09:50:00,26.2,22.9,30.55,NNW,344,1.0,3.0,87,0.00,,BKN055,0.00,VWS V14.00,2013-01-18 14:50:00,
2013-01-18 10:00:00,27.4,22.6,30.55,NNW,344,0.0,2.0,82,0.00,,BKN055,0.00,VWS V14.00,2013-01-18 15:00:00,
2013-01-18 10:10:00,28.5,22.8,30.55,ENE,76,0.0,4.0,79,0.00,,BKN055,0.00,VWS V14.00,2013-01-18 15:10:00,
2013-01-18 10:20:00,30.5,22.9,30.54,ESE,118,1.0,3.0,73,0.00,,BKN055,0.00,VWS V14.00,2013-01-18 15:20:00,
2013-01-18 10:30:00,31.6,21.9,30.55,ESE,113,2.0,4.0,67,0.00,,BKN055,0.00,VWS V14.00,2013-01-18 15:30:00,
2013-01-18 10:40:00,32.5,22.4,30.55,ESE,119,0.0,3.0,66,0.00,,BKN055,0.00,VWS V14.00,2013-01-18 15:40:00,
2013-01-18 10:50:00,33.4,21.8,30.55,SE,136,0.0,3.0,62,0.00,,BKN055,0.00,VWS V14.00,2013-01-18 15:50:00,
2013-01-18 11:00:00,33.7,22.1,30.56,SE,138,1.0,3.0,62,0.00,,BKN055,0.00,VWS V14.00,2013-01-18 16:00:00,
2013-01-18 11:10:00,34.0,20.8,30.55,SE,138,0.0,3.0,58,0.00,,BKN055,0.00,VWS V14.00,2013-01-18 16:10:00,
2013-01-18 11:20:00,33.7,20.9,30.54,South,182,2.0,3.0,59,0.00,,BKN055,0.00,VWS V14.00,2013-01-18 16:20:00,
2013-01-18 11:30:00,33.9,21.9,30.54,SW,235,0.0,4.0,61,0.00,,BKN055,0.00,VWS V14.00,2013-01-18 16:30:00,
2013-01-18 11:40:00,34.4,22.0,30.54,SSE,150,2.0,4.0,60,0.00,,BKN055,0.00,VWS V14.00,2013-01-18 16:40:00,
2013-01-18 11:50:00,34.9,22.8,30.53,SSW,207,0.0,6.0,61,0.00,,BKN055,0.00,VWS V14.00,2013-01-18 16:50:00,
2013-01-18 12:00:00,35.8,22.9,30.52,SSE,156,0.0,3.0,59,0.00,,BKN055,0.00,VWS V14.00,2013-01-18 17:00:00,
2013-01-18 12:10:00,35.7,22.0,30.52,West,265,3.0,4.0,57,0.00,,BKN055,0.00,VWS V14.00,2013-01-18 17:10:00,
2013-01-18 12:20:00,35.8,24.1,30.50,SSW,198,2.0,4.0,62,0.00,,BKN055,0.00,VWS V14.00,2013-01-18 17:20:00,
2013-01-18 12:30:00,35.9,23.0,30.50,South,184,2.0,4.0,59,0.00,,BKN055,0.00,VWS V14.00,2013-01-18 17:30:00,
2013-01-18 12:40:00,36.3,23.4,30.49,WSW,241,0.0,5.0,59,0.00,,BKN055,0.00,VWS V14.00,2013-01-18 17:40:00,
2013-01-18 12:50:00,36.3,24.1,30.48,SW,225,0.0,6.0,61,0.00,,BKN055,0.00,VWS V14.00,2013-01-18 17:50:00,
2013-01-18 13:00:00,36.6,23.6,30.47,WSW,251,0.0,6.0,59,0.00,,BKN055,0.00,VWS V14.00,2013-01-18 18:00:00,
2013-01-18 13:10:00,37.5,25.7,30.47,SW,227,0.0,6.0,62,0.00,,BKN055,0.00,VWS V14.00,2013-01-18 18:10:00,
2013-01-18 13:20:00,38.4,27.3,30.47,SSW,209,0.0,5.0,64,0.00,,BKN055,0.00,VWS V14.00,2013-01-18 18:20:00,
2013-01-18 13:30:00,38.8,26.5,30.45,South,172,0.0,5.0,61,0.00,,BKN055,0.00,VWS V14.00,2013-01-18 18:30:00,
2013-01-18 13:40:00,38.9,26.6,30.45,SSE,155,0.0,5.0,61,0.00,,BKN055,0.00,VWS V14.00,2013-01-18 18:40:00,
2013-01-18 13:50:00,39.5,26.8,30.45,WSW,244,3.0,5.0,60,0.00,,BKN055,0.00,VWS V14.00,2013-01-18 18:50:00,
2013-01-18 14:00:00,39.6,26.1,30.44,SSE,156,0.0,7.0,58,0.00,,BKN055,0.00,VWS V14.00,2013-01-18 19:00:00,
2013-01-18 14:10:00,39.6,26.5,30.44,WSW,245,4.0,11.0,59,0.00,,BKN055,0.00,VWS V14.00,2013-01-18 19:10:00,
2013-01-18 14:20:00,40.0,27.6,30.44,SSW,210,3.0,6.0,61,0.00,,BKN055,0.00,VWS V14.00,2013-01-18 19:20:00,
2013-01-18 14:30:00,40.4,28.0,30.44,WSW,248,3.0,11.0,61,0.00,,BKN055,0.00,VWS V14.00,2013-01-18 19:30:00,
2013-01-18 14:40:00,40.4,27.2,30.44,SW,232,4.0,10.0,59,0.00,,BKN055,0.00,VWS V14.00,2013-01-18 19:40:00,
2013-01-18 14:50:00,40.9,28.1,30.44,SSE,156,2.0,7.0,60,0.00,,BKN055,0.00,VWS V14.00,2013-01-18 19:50:00,
2013-01-18 15:00:00,41.0,29.4,30.43,South,176,3.0,6.0,63,0.00,,BKN055,0.00,VWS V14.00,2013-01-18 20:00:00,
2013-01-18 15:10:00,41.3,28.5,30.43,South,184,2.0,7.0,60,0.00,,BKN055,0.00,VWS V14.00,2013-01-18 20:10:00,
2013-01-18 15:20:00,41.7,30.0,30.43,South,186,4.0,6.0,63,0.00,,BKN055,0.00,VWS V14.00,2013-01-18 20:20:00,
2013-01-18 15:30:00,41.5,29.9,30.42,SSW,201,3.0,6.0,63,0.00,,BKN055,0.00,VWS V14.00,2013-01-18 20:30:00,
2013-01-18 15:40:00,42.0,29.9,30.42,SSW,211,3.0,5.0,62,0.00,,BKN055,0.00,VWS V14.00,2013-01-18 20:40:00,
2013-01-18 15:50:00,42.0,29.9,30.41,South,175,0.0,6.0,62,0.00,,BKN055,0.00,VWS V14.00,2013-01-18 20:50:00,
2013-01-18 16:00:00,41.8,30.1,30.40,South,187,4.0,5.0,63,0.00,,BKN055,0.00,VWS V14.00,2013-01-18 21:00:00,
2013-01-18 16:10:00,41.6,29.6,30.40,South,177,2.0,6.0,62,0.00,,BKN055,0.00,VWS V14.00,2013-01-18 21:10:00,
2013-01-18 16:20:00,41.3,29.7,30.40,SSW,194,0.0,6.0,63,0.00,,BKN055,0.00,VWS V14.00,2013-01-18 21:20:00,
2013-01-18 16:30:00,40.9,28.5,30.39,SSE,158,6.0,7.0,61,0.00,,BKN055,0.00,VWS V14.00,2013-01-18 21:30:00,
2013-01-18 16:40:00,40.6,28.6,30.39,SW,225,4.0,6.0,62,0.00,,BKN055,0.00,VWS V14.00,2013-01-18 21:40:00,
2013-01-18 16:50:00,40.3,28.7,30.39,SSW,205,4.0,6.0,63,0.00,,BKN055,0.00,VWS V14.00,2013-01-18 21:50:00,
2013-01-18 17:00:00,40.4,28.8,30.38,South,182,3.0,7.0,63,0.00,,BKN055,0.00,VWS V14.00,2013-01-18 22:00:00,
2013-01-18 17:10:00,40.3,29.5,30.38,SSE,167,0.0,6.0,65,0.00,,BKN055,0.00,VWS V14.00,2013-01-18 22:10:00,
2013-01-18 17:20:00,40.0,29.2,30.38,SSW,201,4.0,4.0,65,0.00,,BKN055,0.00,VWS V14.00,2013-01-18 22:20:00,
2013-01-18 17:30:00,39.7,29.7,30.38,SSE,160,1.0,6.0,67,0.00,,BKN055,0.00,VWS V14.00,2013-01-18 22:30:00,
2013-01-18 17:40:00,39.5,29.1,30.37,South,188,0.0,5.0,66,0.00,,BKN055,0.00,VWS V14.00,2013-01-18 22:40:00,
2013-01-18 17:50:00,39.2,29.5,30.37,SSW,199,0.0,4.0,68,0.00,,BKN055,0.00,VWS V14.00,2013-01-18 22:50:00,
2013-01-18 18:00:00,39.0,29.4,30.37,SSW,205,2.0,6.0,68,0.00,,BKN055,0.00,VWS V14.00,2013-01-18 23:00:00,
2013-01-18 18:10:00,38.8,29.5,30.36,SSW,205,1.0,7.0,69,0.00,,BKN055,0.00,VWS V14.00,2013-01-18 23:10:00,
2013-01-18 18:20:00,38.5,28.9,30.36,South,175,1.0,4.0,68,0.00,,BKN055,0.00,VWS V14.00,2013-01-18 23:20:00,
2013-01-18 18:30:00,38.4,29.5,30.36,SSW,210,2.0,5.0,70,0.00,,BKN055,0.00,VWS V14.00,2013-01-18 23:30:00,
2013-01-18 18:40:00,38.4,29.8,30.36,South,187,0.0,4.0,71,0.00,,BKN055,0.00,VWS V14.00,2013-01-18 23:40:00,
2013-01-18 18:50:00,38.3,29.7,30.36,SSW,194,0.0,6.0,71,0.00,,BKN055,0.00,VWS V14.00,2013-01-18 23:50:00,
2013-01-18 19:00:00,38.0,29.5,30.35,South,174,0.0,5.0,71,0.00,,BKN055,0.00,VWS V14.00,2013-01-19 00:00:00,
2013-01-18 19:10:00,38.0,30.5,30.36,South,182,0.0,3.0,74,0.00,,BKN055,0.00,VWS V14.00,2013-01-19 00:10:00,
2013-01-18 19:20:00,37.9,30.4,30.35,SSW,192,0.0,5.0,74,0.00,,BKN055,0.00,VWS V14.00,2013-01-19 00:20:00,
2013-01-18 19:30:00,37.7,30.5,30.35,SW,217,0.0,4.0,75,0.00,,BKN055,0.00,VWS V14.00,2013-01-19 00:30:00,
2013-01-18 19:40:00,37.7,30.5,30.35,SW,217,0.0,0.0,75,0.00,,BKN055,0.00,VWS V14.00,2013-01-19 00:40:00,
2013-01-18 19:50:00,37.7,31.1,30.34,SSW,200,4.0,5.0,77,0.00,,BKN055,0.00,VWS V14.00,2013-01-19 00:50:00,
2013-01-18 20:00:00,37.6,30.1,30.34,SW,214,0.0,4.0,74,0.00,,BKN055,0.00,VWS V14.00,2013-01-19 01:00:00,
2013-01-18 20:10:00,37.7,30.2,30.33,SSW,209,0.0,6.0,74,0.00,,BKN055,0.00,VWS V14.00,2013-01-19 01:10:00,
2013-01-18 20:20:00,37.8,30.3,30.34,SW,223,0.0,7.0,74,0.00,,BKN055,0.00,VWS V14.00,2013-01-19 01:20:00,
2013-01-18 20:30:00,37.9,31.0,30.34,SW,227,1.0,6.0,76,0.00,,BKN055,0.00,VWS V14.00,2013-01-19 01:30:00,
2013-01-18 20:40:00,37.8,30.9,30.33,WSW,257,2.0,6.0,76,0.00,,BKN055,0.00,VWS V14.00,2013-01-19 01:40:00,
2013-01-18 20:50:00,37.7,31.1,30.33,SSW,211,0.0,3.0,77,0.00,,BKN055,0.00,VWS V14.00,2013-01-19 01:50:00,
2013-01-18 21:00:00,37.6,31.4,30.32,SSW,204,0.0,5.0,78,0.00,,BKN055,0.00,VWS V14.00,2013-01-19 02:00:00,
2013-01-18 21:10:00,37.5,31.6,30.32,SSW,199,0.0,4.0,79,0.00,,BKN055,0.00,VWS V14.00,2013-01-19 02:10:00,
2013-01-18 21:20:00,37.4,31.2,30.31,South,173,1.0,4.0,78,0.00,,BKN055,0.00,VWS V14.00,2013-01-19 02:20:00,
2013-01-18 21:30:00,37.3,31.1,30.31,WSW,238,1.0,4.0,78,0.00,,BKN055,0.00,VWS V14.00,2013-01-19 02:30:00,
2013-01-18 21:40:00,37.4,31.2,30.31,SW,229,0.0,5.0,78,0.00,,BKN055,0.00,VWS V14.00,2013-01-19 02:40:00,
2013-01-18 21:50:00,37.6,30.7,30.30,SW,236,0.0,6.0,76,0.00,,BKN055,0.00,VWS V14.00,2013-01-19 02:50:00,
2013-01-18 22:00:00,37.9,30.7,30.31,SSW,210,0.0,6.0,75,0.00,,BKN055,0.00,VWS V14.00,2013-01-19 03:00:00,
2013-01-18 22:10:00,37.9,30.7,30.30,WSW,245,4.0,9.0,75,0.00,,BKN055,0.00,VWS V14.00,2013-01-19 03:10:00,
2013-01-18 22:20:00,38.0,30.5,30.30,WSW,250,0.0,7.0,74,0.00,,BKN055,0.00,VWS V14.00,2013-01-19 03:20:00,
2013-01-18 22:30:00,38.0,31.8,30.30,SSW,202,0.0,5.0,78,0.00,,BKN055,0.00,VWS V14.00,2013-01-19 03:30:00,
2013-01-18 22:40:00,37.9,31.4,30.30,SW,223,0.0,4.0,77,0.00,,BKN055,0.00,VWS V14.00,2013-01-19 03:40:00,
2013-01-18 22:50:00,37.7,31.1,30.29,South,178,0.0,6.0,77,0.00,,BKN055,0.00,VWS V14.00,2013-01-19 03:50:00,
2013-01-18 23:00:00,37.7,31.8,30.29,SW,232,1.0,3.0,79,0.00,,BKN055,0.00,VWS V14.00,2013-01-19 04:00:00,
2013-01-18 23:10:00,37.5,31.3,30.28,SW,230,0.0,1.0,78,0.00,,BKN055,0.00,VWS V14.00,2013-01-19 04:10:00,
2013-01-18 23:20:00,37.4,31.2,30.27,SSW,196,0.0,3.0,78,0.00,,BKN055,0.00,VWS V14.00,2013-01-19 04:20:00,
2013-01-18 23:30:00,37.8,31.6,30.27,South,190,0.0,9.0,78,0.00,,BKN055,0.00,VWS V14.00,2013-01-19 04:30:00,
2013-01-18 23:40:00,37.8,31.2,30.27,South,179,0.0,10.0,77,0.00,,BKN055,0.00,VWS V14.00,2013-01-19 04:40:00,
2013-01-18 23:50:00,37.7,31.1,30.27,SSW,212,0.0,3.0,77,0.00,,BKN055,0.00,VWS V14.00,2013-01-19 04:50:00,